Time;durP1;ratioP1;P1;durP2;ratioP2;P2;SDS_P1;SDS_P2;PMS_P1;PMS_P2;Temp;Humidity;BMP_temperature;BMP_pressure;BME280_temperature;BME280_humidity;BME280_pressure;Samples;Min_cycle;Max_cycle;Signal;HPM_P1;HPM_P2
2023/12/17 00:01:10;;;;;;;56.28;29.00;;;;;;;-144.73;100.00;54752.53;4980231;28;20094;-74
2023/12/17 00:03:35;;;;;;;57.30;31.35;;;;;;;-144.73;100.00;54764.84;4978476;28;20046;-74
2023/12/17 00:06:00;;;;;;;50.38;29.25;;;;;;;-144.73;100.00;54736.13;4975991;28;20109;-74
2023/12/17 00:08:26;;;;;;;59.28;28.10;;;;;;;-144.73;100.00;54760.75;4981954;28;20089;-74
2023/12/17 00:10:52;;;;;;;49.88;29.35;;;;;;;-144.73;100.00;54752.53;4976444;28;20015;-74
2023/12/17 00:13:18;;;;;;;45.97;27.08;;;;;;;-144.73;100.00;54754.59;4977612;28;20040;-73
2023/12/17 00:15:47;;;;;;;46.97;25.13;;;;;;;-144.73;100.00;54750.50;4979865;28;20026;-74
2023/12/17 00:18:13;;;;;;;51.70;26.13;;;;;;;-144.73;100.00;54752.53;4982505;28;20035;-74
2023/12/17 00:20:41;;;;;;;50.17;28.70;;;;;;;-144.73;100.00;54713.53;4983290;28;20022;-74
2023/12/17 00:23:06;;;;;;;45.13;24.77;;;;;;;-144.73;100.00;54752.53;4977823;28;20106;-74
2023/12/17 00:25:32;;;;;;;46.95;25.38;;;;;;;-144.73;100.00;54719.69;4981646;28;20113;-74
2023/12/17 00:27:57;;;;;;;50.65;23.30;;;;;;;-144.73;100.00;54732.00;4985129;28;20057;-74
2023/12/17 00:30:25;;;;;;;45.70;25.98;;;;;;;-144.73;100.00;54785.38;4977842;28;20047;-74
2023/12/17 00:32:54;;;;;;;45.35;24.10;;;;;;;-144.73;100.00;54785.38;4983332;28;20050;-75
2023/12/17 00:35:20;;;;;;;43.25;24.73;;;;;;;-144.73;100.00;54719.69;4991805;28;20093;-74
2023/12/17 00:37:45;;;;;;;49.10;23.58;;;;;;;-144.73;100.00;54760.75;4983176;28;20056;-74
2023/12/17 00:40:13;;;;;;;42.67;22.52;;;;;;;-144.73;100.00;54740.22;4983620;28;20034;-74
2023/12/17 00:42:38;;;;;;;43.90;23.88;;;;;;;-144.73;100.00;54740.22;4975615;28;20042;-74
2023/12/17 00:45:04;;;;;;;35.88;20.85;;;;;;;-144.73;100.00;54756.66;4977533;28;20092;-74
2023/12/17 00:47:29;;;;;;;38.10;21.40;;;;;;;-144.73;100.00;54729.97;4981275;28;20060;-74
2023/12/17 00:49:55;;;;;;;38.05;20.50;;;;;;;-144.73;100.00;54732.00;4984516;28;20068;-74
2023/12/17 00:52:21;;;;;;;34.63;20.67;;;;;;;-144.73;100.00;54752.53;4985749;28;20165;-74
2023/12/17 00:54:47;;;;;;;37.42;21.45;;;;;;;-144.73;100.00;54777.16;4987231;28;20014;-74
2023/12/17 00:57:13;;;;;;;39.83;20.35;;;;;;;-144.73;100.00;54727.91;4982534;28;20065;-74
2023/12/17 00:59:38;;;;;;;36.13;19.10;;;;;;;-144.73;100.00;54686.84;4981637;28;20125;-74
2023/12/17 01:02:04;;;;;;;33.03;20.17;;;;;;;-144.73;100.00;54744.31;4978496;28;20033;-74
2023/12/17 01:04:29;;;;;;;29.38;19.48;;;;;;;-144.73;100.00;54760.75;4980345;28;20041;-74
2023/12/17 01:06:55;;;;;;;31.08;18.95;;;;;;;-144.73;100.00;54736.13;4982263;28;20097;-74
2023/12/17 01:09:20;;;;;;;32.40;18.85;;;;;;;-144.73;100.00;54764.84;4977064;28;20039;-73
2023/12/17 01:11:45;;;;;;;32.55;18.27;;;;;;;-144.73;100.00;54791.53;4975625;28;20043;-73
2023/12/17 01:14:11;;;;;;;37.47;17.85;;;;;;;-144.73;100.00;54760.75;4985776;28;20065;-73
2023/12/17 01:16:36;;;;;;;28.83;17.20;;;;;;;-144.73;100.00;54711.47;4983982;28;20010;-73
2023/12/17 01:19:02;;;;;;;28.55;17.08;;;;;;;-144.73;100.00;54740.22;4987817;28;20438;-73
2023/12/17 01:21:30;;;;;;;30.45;16.35;;;;;;;-144.73;100.00;54707.38;4983699;28;20030;-73
2023/12/17 01:23:57;;;;;;;31.67;15.55;;;;;;;-144.73;100.00;54723.81;4983625;28;20110;-73
2023/12/17 01:26:26;;;;;;;33.85;16.17;;;;;;;-144.73;100.00;54723.81;4988491;28;20027;-73
2023/12/17 01:28:58;;;;;;;27.27;15.30;;;;;;;-144.73;100.00;54727.91;4984122;28;20026;-73
2023/12/17 01:31:24;;;;;;;27.25;16.48;;;;;;;-144.73;100.00;54773.06;4986885;28;20046;-73
2023/12/17 01:33:49;;;;;;;29.45;15.32;;;;;;;-144.73;100.00;54740.22;4977906;28;20027;-74
2023/12/17 01:36:15;;;;;;;28.80;15.18;;;;;;;-144.73;100.00;54736.13;4983913;28;20073;-73
2023/12/17 01:38:40;;;;;;;28.27;15.60;;;;;;;-144.73;100.00;54754.59;4988132;28;20125;-74
2023/12/17 01:41:09;;;;;;;35.15;14.55;;;;;;;-144.73;100.00;54707.38;4982579;28;20051;-73
2023/12/17 01:43:34;;;;;;;24.10;14.35;;;;;;;-144.73;100.00;54715.59;4976663;28;20170;-73
2023/12/17 01:46:00;;;;;;;30.35;14.40;;;;;;;-144.73;100.00;54748.44;4983313;28;20113;-73
2023/12/17 01:48:26;;;;;;;30.50;15.43;;;;;;;-144.73;100.00;54752.53;4982929;28;20042;-74
2023/12/17 01:50:53;;;;;;;30.27;14.68;;;;;;;-144.73;100.00;54742.28;4984223;28;20035;-74
2023/12/17 01:53:19;;;;;;;31.63;15.63;;;;;;;-144.73;100.00;54740.22;4973289;28;20049;-73
2023/12/17 01:55:46;;;;;;;22.02;14.40;;;;;;;-144.73;100.00;54736.13;4981458;28;20023;-73
2023/12/17 01:58:13;;;;;;;26.30;15.77;;;;;;;-144.73;100.00;54744.31;4978337;28;20042;-74
2023/12/17 02:00:39;;;;;;;28.23;14.65;;;;;;;-144.73;100.00;54719.69;4982135;28;20031;-73
2023/12/17 02:03:04;;;;;;;25.63;15.13;;;;;;;-144.73;100.00;54773.06;4975102;28;20038;-73
2023/12/17 02:05:33;;;;;;;29.55;15.02;;;;;;;-144.73;100.00;54719.69;4983564;28;20018;-74
2023/12/17 02:07:59;;;;;;;29.33;16.77;;;;;;;-144.73;100.00;54742.28;4977547;28;20125;-74
2023/12/17 02:10:26;;;;;;;31.70;15.88;;;;;;;-144.73;100.00;54736.13;4982479;28;20130;-74
2023/12/17 02:12:51;;;;;;;22.45;13.07;;;;;;;-144.73;100.00;54748.44;4981430;28;20054;-73
2023/12/17 02:15:17;;;;;;;23.67;14.05;;;;;;;-144.73;100.00;54740.22;4984418;28;20084;-74
2023/12/17 02:17:45;;;;;;;20.17;12.65;;;;;;;-144.73;100.00;54752.53;4978968;28;20034;-73
2023/12/17 02:20:12;;;;;;;28.73;13.70;;;;;;;-144.73;100.00;54764.84;4978336;28;20033;-74
2023/12/17 02:22:38;;;;;;;28.08;12.18;;;;;;;-144.73;100.00;54736.13;4984492;28;20030;-73
2023/12/17 02:25:04;;;;;;;27.50;13.13;;;;;;;-144.73;100.00;54740.22;4986367;28;20026;-73
2023/12/17 02:27:30;;;;;;;31.25;13.35;;;;;;;-144.73;100.00;54748.44;4975306;28;20038;-73
2023/12/17 02:29:55;;;;;;;22.33;11.82;;;;;;;-144.73;100.00;54756.66;4979534;28;20109;-73
2023/12/17 02:32:22;;;;;;;27.17;11.30;;;;;;;-144.73;100.00;54688.91;4978949;28;20032;-73
2023/12/17 02:34:52;;;;;;;20.55;10.88;;;;;;;-144.73;100.00;54738.16;4986637;28;20481;-73
2023/12/17 02:37:18;;;;;;;21.90;10.98;;;;;;;-144.73;100.00;54723.81;4988548;28;20022;-74
2023/12/17 02:39:43;;;;;;;20.98;11.80;;;;;;;-144.73;100.00;54725.84;4982817;28;20097;-73
2023/12/17 02:42:09;;;;;;;21.50;11.25;;;;;;;-144.73;100.00;54727.91;4984813;28;20030;-73
2023/12/17 02:44:35;;;;;;;24.60;11.15;;;;;;;-144.73;100.00;54760.75;4978467;28;20035;-73
2023/12/17 02:47:03;;;;;;;19.88;10.30;;;;;;;-144.73;100.00;54736.13;4980085;28;20142;-73
2023/12/17 02:49:29;;;;;;;23.63;11.05;;;;;;;-144.73;100.00;54752.53;4981625;28;20051;-73
2023/12/17 02:51:57;;;;;;;27.80;11.57;;;;;;;-144.73;100.00;54736.13;4985716;28;20105;-73
2023/12/17 02:54:23;;;;;;;20.23;10.82;;;;;;;-144.73;100.00;54777.16;4980583;28;20076;-73
2023/12/17 02:56:51;;;;;;;26.77;11.63;;;;;;;-144.73;100.00;54715.59;4974383;28;20086;-74
2023/12/17 02:59:17;;;;;;;20.08;10.93;;;;;;;-144.73;100.00;54711.47;4977075;28;20045;-74
2023/12/17 03:01:43;;;;;;;26.33;11.90;;;;;;;-144.73;100.00;54727.91;4979197;28;20018;-74
2023/12/17 03:04:10;;;;;;;21.88;11.75;;;;;;;-144.73;100.00;54711.47;4987618;28;20046;-74
2023/12/17 03:06:36;;;;;;;24.33;11.70;;;;;;;-144.73;100.00;54715.59;4981006;28;20080;-74
2023/12/17 03:09:02;;;;;;;21.88;10.10;;;;;;;-144.73;100.00;54752.53;4981708;28;20050;-72
2023/12/17 03:11:28;;;;;;;19.67;11.20;;;;;;;-144.73;100.00;54736.13;4974825;28;20487;-72
2023/12/17 03:13:53;;;;;;;16.77;10.00;;;;;;;-144.73;100.00;54764.84;4973668;28;20055;-72
2023/12/17 03:16:18;;;;;;;26.25;10.25;;;;;;;-144.73;100.00;54711.47;4981373;28;20031;-72
2023/12/17 03:18:44;;;;;;;21.25;10.52;;;;;;;-144.73;100.00;54736.13;4977019;28;20039;-72
2023/12/17 03:21:11;;;;;;;23.80;10.20;;;;;;;-144.73;100.00;54740.22;4976493;28;20030;-72
2023/12/17 03:23:37;;;;;;;26.90;10.32;;;;;;;-144.73;100.00;54773.06;4979529;28;20046;-73
2023/12/17 03:26:03;;;;;;;24.50;9.65;;;;;;;-144.73;100.00;54762.81;4985554;28;20032;-73
2023/12/17 03:28:28;;;;;;;22.08;9.85;;;;;;;-144.73;100.00;54736.13;4980461;28;20054;-73
2023/12/17 03:30:54;;;;;;;20.15;9.25;;;;;;;-144.73;100.00;54756.66;4982805;28;20027;-73
2023/12/17 03:33:19;;;;;;;23.50;10.50;;;;;;;-144.73;100.00;54715.59;4981851;28;20061;-72
2023/12/17 03:35:46;;;;;;;18.05;9.18;;;;;;;-144.73;100.00;54725.84;4982847;28;20026;-72
2023/12/17 03:38:12;;;;;;;24.25;10.68;;;;;;;-144.73;100.00;54740.22;4980304;28;20035;-73
2023/12/17 03:40:38;;;;;;;17.90;9.30;;;;;;;-144.73;100.00;54750.50;4978536;28;20045;-72
2023/12/17 03:43:03;;;;;;;23.30;8.60;;;;;;;-144.73;100.00;54719.69;4986655;28;20035;-72
2023/12/17 03:45:29;;;;;;;19.98;9.88;;;;;;;-144.73;100.00;54760.75;4985722;28;20033;-73
2023/12/17 03:47:54;;;;;;;18.33;9.07;;;;;;;-144.73;100.00;54744.31;4985921;28;20042;-72
2023/12/17 03:50:19;;;;;;;18.10;9.23;;;;;;;-144.73;100.00;54752.53;4984782;28;20081;-73
2023/12/17 03:52:47;;;;;;;16.60;9.50;;;;;;;-144.73;100.00;54748.44;4980342;28;20035;-72
2023/12/17 03:55:14;;;;;;;16.75;8.45;;;;;;;-144.73;100.00;54727.91;4985521;28;20034;-72
2023/12/17 03:57:40;;;;;;;21.65;9.60;;;;;;;-144.73;100.00;54727.91;4980546;28;20046;-72
2023/12/17 04:00:06;;;;;;;18.23;8.68;;;;;;;-144.73;100.00;54744.31;4979459;28;20069;-72
2023/12/17 04:02:32;;;;;;;22.75;9.60;;;;;;;-144.73;100.00;54760.75;4979159;28;20396;-72
2023/12/17 04:04:58;;;;;;;24.52;9.25;;;;;;;-144.73;100.00;54732.00;4983511;28;20033;-72
2023/12/17 04:07:26;;;;;;;13.55;8.60;;;;;;;-144.73;100.00;54748.44;4979076;28;20030;-73
2023/12/17 04:09:52;;;;;;;19.27;9.82;;;;;;;-144.73;100.00;54736.13;4974996;28;20027;-72
2023/12/17 04:12:18;;;;;;;20.30;8.70;;;;;;;-144.73;100.00;54732.00;4983163;28;20178;-73
2023/12/17 04:14:43;;;;;;;19.15;8.82;;;;;;;-144.73;100.00;54744.31;4979913;28;20490;-73
2023/12/17 04:17:09;;;;;;;16.58;8.13;;;;;;;-144.73;100.00;54740.22;4984321;28;20026;-73
2023/12/17 04:19:34;;;;;;;19.60;8.45;;;;;;;-144.73;100.00;54682.75;4977763;28;20117;-73
2023/12/17 04:22:00;;;;;;;18.85;8.95;;;;;;;-144.73;100.00;54736.13;4987823;28;20030;-73
2023/12/17 04:24:25;;;;;;;22.10;8.85;;;;;;;-144.73;100.00;54727.91;4980578;28;20105;-73
2023/12/17 04:26:50;;;;;;;20.83;9.25;;;;;;;-144.73;100.00;54750.50;4980380;28;20027;-73
2023/12/17 04:29:16;;;;;;;19.13;8.20;;;;;;;-144.73;100.00;54785.38;4989997;28;20093;-73
2023/12/17 04:31:41;;;;;;;20.23;9.55;;;;;;;-144.73;100.00;54699.16;4983292;28;20026;-73
2023/12/17 04:34:08;;;;;;;22.45;9.30;;;;;;;-144.73;100.00;54725.84;4982348;28;20034;-73
2023/12/17 04:36:34;;;;;;;18.67;8.50;;;;;;;-144.73;100.00;54760.75;4979072;28;20030;-73
2023/12/17 04:39:00;;;;;;;18.02;8.70;;;;;;;-144.73;100.00;54711.47;4974337;28;20059;-73
2023/12/17 04:41:25;;;;;;;21.48;8.95;;;;;;;-144.73;100.00;54719.69;4979263;28;20062;-73
2023/12/17 04:43:51;;;;;;;25.98;8.02;;;;;;;-144.73;100.00;54715.59;4981538;28;20033;-73
2023/12/17 04:46:16;;;;;;;14.70;8.10;;;;;;;-144.73;100.00;54674.53;4987133;28;20065;-73
2023/12/17 04:48:41;;;;;;;22.85;8.68;;;;;;;-144.73;100.00;54711.47;4978945;28;20049;-73
2023/12/17 04:51:07;;;;;;;17.77;7.85;;;;;;;-144.73;100.00;54727.91;4979717;28;20023;-73
2023/12/17 04:53:32;;;;;;;18.80;8.65;;;;;;;-144.73;100.00;54744.31;4981971;28;20031;-73
2023/12/17 04:55:58;;;;;;;19.27;7.68;;;;;;;-144.73;100.00;54736.13;4986530;28;20026;-73
2023/12/17 04:58:25;;;;;;;16.35;8.20;;;;;;;-144.73;100.00;54740.22;4979287;28;20077;-73
2023/12/17 05:00:50;;;;;;;14.15;8.18;;;;;;;-144.73;100.00;54717.66;4981164;28;20023;-73
2023/12/17 05:03:16;;;;;;;16.77;7.82;;;;;;;-144.73;100.00;54738.16;4981362;28;20112;-73
2023/12/17 05:05:41;;;;;;;17.50;8.75;;;;;;;-144.73;100.00;54707.38;4985438;28;20026;-73
2023/12/17 05:08:07;;;;;;;16.10;8.32;;;;;;;-144.73;100.00;54752.53;4976661;28;20129;-73
2023/12/17 05:10:32;;;;;;;18.58;8.90;;;;;;;-144.73;100.00;54736.13;4982099;28;20474;-73
2023/12/17 05:12:57;;;;;;;20.73;8.23;;;;;;;-144.73;100.00;54695.06;4974290;28;20085;-74
2023/12/17 05:15:23;;;;;;;19.65;9.27;;;;;;;-144.73;100.00;54736.13;4978138;28;20031;-73
2023/12/17 05:17:48;;;;;;;16.77;7.95;;;;;;;-144.73;100.00;54754.59;4979635;28;20046;-73
2023/12/17 05:20:14;;;;;;;22.98;8.55;;;;;;;-144.73;100.00;54723.81;4979402;28;20038;-73
2023/12/17 05:22:39;;;;;;;24.05;9.43;;;;;;;-144.73;100.00;54717.66;4984428;28;20049;-71
2023/12/17 05:25:06;;;;;;;23.00;8.77;;;;;;;-144.73;100.00;54723.81;4978070;28;20030;-72
2023/12/17 05:27:31;;;;;;;25.70;8.98;;;;;;;-144.73;100.00;54744.31;4978866;28;20026;-72
2023/12/17 05:29:56;;;;;;;16.02;8.40;;;;;;;-144.73;100.00;54723.81;4979255;28;20120;-74
2023/12/17 05:32:22;;;;;;;17.80;8.65;;;;;;;-144.73;100.00;54756.66;4985178;28;20038;-73
2023/12/17 05:34:47;;;;;;;18.35;8.18;;;;;;;-144.73;100.00;54723.81;4979911;28;20061;-71
2023/12/17 05:37:13;;;;;;;18.80;7.75;;;;;;;-144.73;100.00;54736.13;4977300;28;20027;-71
2023/12/17 05:39:38;;;;;;;19.98;8.15;;;;;;;-144.73;100.00;54729.97;4974023;28;20050;-71
2023/12/17 05:42:04;;;;;;;18.50;8.27;;;;;;;-144.73;100.00;54723.81;4987969;28;20118;-72
2023/12/17 05:44:29;;;;;;;17.55;7.28;;;;;;;-144.73;100.00;54715.59;4979081;28;20042;-72
2023/12/17 05:46:54;;;;;;;15.10;7.53;;;;;;;-144.73;100.00;54715.59;4988179;28;20026;-72
2023/12/17 05:49:20;;;;;;;17.30;7.90;;;;;;;-144.73;100.00;54715.59;4976340;28;20042;-72
2023/12/17 05:51:45;;;;;;;17.60;7.65;;;;;;;-144.73;100.00;54703.28;4983722;28;20054;-72
2023/12/17 05:54:14;;;;;;;15.82;7.60;;;;;;;-144.73;100.00;54740.22;4980467;28;20062;-72
2023/12/17 05:56:41;;;;;;;15.52;9.00;;;;;;;-144.73;100.00;54703.28;4977408;28;20022;-74
2023/12/17 05:59:06;;;;;;;21.77;8.13;;;;;;;-144.73;100.00;54717.66;4983601;28;20035;-72
2023/12/17 06:01:32;;;;;;;17.50;7.90;;;;;;;-144.73;100.00;54756.66;4987525;28;20189;-74
2023/12/17 06:03:57;;;;;;;15.27;7.13;;;;;;;-144.73;100.00;54723.81;4981083;28;20117;-72
2023/12/17 06:06:23;;;;;;;17.00;7.55;;;;;;;-144.73;100.00;54781.28;4976712;28;20042;-72
2023/12/17 06:08:48;;;;;;;22.08;8.10;;;;;;;-144.73;100.00;54740.22;4976187;28;20038;-72
2023/12/17 06:11:16;;;;;;;18.08;6.97;;;;;;;-144.73;100.00;54736.13;4983956;28;20094;-73
2023/12/17 06:13:41;;;;;;;15.77;7.18;;;;;;;-144.73;100.00;54707.38;4978199;28;20410;-72
2023/12/17 06:16:07;;;;;;;20.98;7.57;;;;;;;-144.73;100.00;54768.97;4981065;28;20111;-72
2023/12/17 06:18:32;;;;;;;13.40;7.43;;;;;;;-144.73;100.00;54707.38;4978211;28;20049;-72
2023/12/17 06:21:00;;;;;;;16.65;6.38;;;;;;;-144.73;100.00;54756.66;4972712;28;20084;-72
2023/12/17 06:23:25;;;;;;;11.93;7.00;;;;;;;-144.73;100.00;54723.81;4974966;28;20035;-72
2023/12/17 06:25:51;;;;;;;23.63;7.63;;;;;;;-144.73;100.00;54756.66;4988165;28;20366;-73
2023/12/17 06:28:16;;;;;;;12.07;6.30;;;;;;;-144.73;100.00;54727.91;4983317;28;20046;-73
2023/12/17 06:30:41;;;;;;;13.45;6.65;;;;;;;-144.73;100.00;54727.91;4975488;28;20029;-73
2023/12/17 06:33:07;;;;;;;10.30;6.03;;;;;;;-144.73;100.00;54721.75;4986809;28;20112;-72
2023/12/17 06:35:32;;;;;;;15.90;6.95;;;;;;;-144.73;100.00;54736.13;4975229;28;20039;-73
2023/12/17 06:37:57;;;;;;;12.70;6.50;;;;;;;-144.73;100.00;54764.84;4978899;28;20039;-72
2023/12/17 06:40:23;;;;;;;11.32;5.95;;;;;;;-144.73;100.00;54719.69;4986689;28;20421;-72
2023/12/17 06:42:48;;;;;;;17.60;7.40;;;;;;;-144.73;100.00;54721.75;4979489;28;20058;-72
2023/12/17 06:45:13;;;;;;;16.85;6.53;;;;;;;-144.73;100.00;54715.59;4977064;28;20065;-73
2023/12/17 06:47:39;;;;;;;17.25;6.47;;;;;;;-144.73;100.00;54754.59;4975996;28;20047;-72
2023/12/17 06:50:05;;;;;;;13.20;6.28;;;;;;;-144.73;100.00;54727.91;4981558;28;20125;-72
2023/12/17 06:52:30;;;;;;;20.25;7.47;;;;;;;-144.73;100.00;54748.44;4977159;28;20023;-72
2023/12/17 06:54:55;;;;;;;18.65;6.75;;;;;;;-144.73;100.00;54719.69;4973704;28;20101;-73
2023/12/17 06:57:21;;;;;;;15.18;6.50;;;;;;;-144.73;100.00;54729.97;4976385;28;20030;-72
2023/12/17 06:59:46;;;;;;;18.80;7.05;;;;;;;-144.73;100.00;54723.81;4983508;28;20121;-72
2023/12/17 07:02:11;;;;;;;13.95;6.80;;;;;;;-144.73;100.00;54760.75;4987000;28;20029;-72
2023/12/17 07:04:37;;;;;;;15.73;6.38;;;;;;;-144.73;100.00;54736.13;4973794;28;20047;-72
2023/12/17 07:07:02;;;;;;;16.08;6.50;;;;;;;-144.73;100.00;54693.00;4975589;28;20027;-73
2023/12/17 07:09:28;;;;;;;13.70;6.03;;;;;;;-144.73;100.00;54744.31;4983817;28;20133;-73
2023/12/17 07:11:53;;;;;;;15.02;6.47;;;;;;;-144.73;100.00;54736.13;4981356;28;20031;-72
2023/12/17 07:14:18;;;;;;;11.98;6.00;;;;;;;-144.73;100.00;54742.28;4982788;28;20038;-72
2023/12/17 07:16:44;;;;;;;14.05;5.95;;;;;;;-144.73;100.00;54740.22;4986936;28;20037;-72
2023/12/17 07:19:09;;;;;;;14.48;5.93;;;;;;;-144.73;100.00;54719.69;4988116;28;20050;-72
2023/12/17 07:21:34;;;;;;;16.55;6.90;;;;;;;-144.73;100.00;54773.06;4977878;28;20081;-73
2023/12/17 07:24:00;;;;;;;13.52;6.47;;;;;;;-144.73;100.00;54719.69;4983292;28;20050;-72
2023/12/17 07:26:25;;;;;;;19.60;6.30;;;;;;;-144.73;100.00;54717.66;4983653;28;20026;-72
2023/12/17 07:28:50;;;;;;;11.93;5.97;;;;;;;-144.73;100.00;54752.53;4986056;28;20034;-72
2023/12/17 07:31:16;;;;;;;18.80;6.53;;;;;;;-144.73;100.00;54729.97;4986235;28;20023;-72
2023/12/17 07:33:44;;;;;;;16.80;6.22;;;;;;;-144.73;100.00;54723.81;4989412;28;20061;-73
2023/12/17 07:36:09;;;;;;;16.20;6.13;;;;;;;-144.73;100.00;54715.59;4978955;28;20073;-72
2023/12/17 07:38:35;;;;;;;19.90;6.18;;;;;;;-144.73;100.00;54703.28;4989948;28;20054;-73
2023/12/17 07:41:00;;;;;;;18.48;6.50;;;;;;;-144.73;100.00;54721.75;4984171;28;20066;-73
2023/12/17 07:43:26;;;;;;;20.92;6.47;;;;;;;-144.73;100.00;54736.13;4977573;28;20034;-73
2023/12/17 07:45:51;;;;;;;14.65;6.20;;;;;;;-144.73;100.00;54719.69;4984372;28;20026;-73
2023/12/17 07:48:17;;;;;;;13.68;7.07;;;;;;;-144.73;100.00;54754.59;4987131;28;20129;-71
2023/12/17 07:50:43;;;;;;;16.92;6.63;;;;;;;-144.73;100.00;54732.00;4984169;28;20061;-71
2023/12/17 07:53:08;;;;;;;15.93;6.80;;;;;;;-144.73;100.00;54732.00;4974228;28;20069;-72
2023/12/17 07:55:34;;;;;;;14.55;7.10;;;;;;;-144.73;100.00;54736.13;4978125;28;20023;-71
2023/12/17 07:57:59;;;;;;;14.55;6.15;;;;;;;-144.73;100.00;54711.47;4981961;28;20047;-71
2023/12/17 08:00:24;;;;;;;14.70;7.25;;;;;;;-144.73;100.00;54725.84;4985025;28;20022;-72
2023/12/17 08:02:50;;;;;;;16.20;6.63;;;;;;;-144.73;100.00;54736.13;4984275;28;20105;-71
2023/12/17 08:05:17;;;;;;;14.60;6.50;;;;;;;-144.73;100.00;54740.22;4981307;28;20027;-72
2023/12/17 08:07:42;;;;;;;12.50;7.72;;;;;;;-144.73;100.00;54717.66;4983113;28;20034;-71
2023/12/17 08:10:08;;;;;;;19.67;7.53;;;;;;;-144.73;100.00;54727.91;4984017;28;20026;-72
2023/12/17 08:12:34;;;;;;;22.75;8.63;;;;;;;-144.73;100.00;54734.06;4975644;28;20030;-71
2023/12/17 08:14:59;;;;;;;16.90;7.18;;;;;;;-144.73;100.00;54715.59;4977684;28;20041;-71
2023/12/17 08:17:24;;;;;;;22.10;8.38;;;;;;;-144.73;100.00;54697.13;4982649;28;20053;-71
2023/12/17 08:19:50;;;;;;;25.10;8.43;;;;;;;-144.73;100.00;54703.28;4977801;28;20023;-73
2023/12/17 08:22:15;;;;;;;29.33;10.40;;;;;;;-144.73;100.00;54711.47;4980361;28;20026;-71
2023/12/17 08:24:41;;;;;;;16.17;8.52;;;;;;;-144.73;100.00;54695.06;4991987;28;20106;-71
2023/12/17 08:27:06;;;;;;;20.55;9.15;;;;;;;-144.73;100.00;54746.38;4974936;28;20023;-71
2023/12/17 08:29:31;;;;;;;21.40;9.98;;;;;;;-144.73;100.00;54744.31;4986752;28;20520;-73
2023/12/17 08:31:57;;;;;;;19.33;9.73;;;;;;;-144.73;100.00;54711.47;4979749;28;20027;-73
2023/12/17 08:34:24;;;;;;;23.08;9.32;;;;;;;-144.73;100.00;54662.22;4979300;28;20193;-73
2023/12/17 08:36:51;;;;;;;28.08;10.10;;;;;;;-144.73;100.00;54707.38;4986077;28;20018;-71
2023/12/17 08:39:16;;;;;;;19.27;10.65;;;;;;;-144.73;100.00;54738.16;4985732;28;20034;-72
2023/12/17 08:41:42;;;;;;;23.30;11.10;;;;;;;-144.73;100.00;54740.22;4985538;28;20019;-72
2023/12/17 08:44:07;;;;;;;29.40;11.43;;;;;;;-144.73;100.00;54709.44;4985767;28;20039;-73
2023/12/17 08:46:33;;;;;;;19.65;10.18;;;;;;;-144.73;100.00;54732.00;4981581;28;20117;-71
2023/12/17 08:48:59;;;;;;;18.98;10.25;;;;;;;-144.73;100.00;54736.13;4975526;28;20042;-71
2023/12/17 08:51:24;;;;;;;20.35;9.98;;;;;;;-144.73;100.00;54723.81;4976351;28;20027;-72
2023/12/17 08:53:50;;;;;;;20.30;10.75;;;;;;;-144.73;100.00;54719.69;4982318;28;20035;-71
2023/12/17 08:56:15;;;;;;;24.50;10.88;;;;;;;-144.73;100.00;54752.53;4990879;28;20018;-72
2023/12/17 08:58:41;;;;;;;25.38;10.63;;;;;;;-144.73;100.00;54695.06;4976741;28;20112;-71
2023/12/17 09:01:06;;;;;;;19.02;9.32;;;;;;;-144.73;100.00;54686.84;4980994;28;20027;-71
2023/12/17 09:03:31;;;;;;;21.13;9.95;;;;;;;-144.73;100.00;54736.13;4973471;28;20027;-72
2023/12/17 09:05:59;;;;;;;14.35;9.48;;;;;;;-144.73;100.00;54695.06;4987222;28;20022;-71
2023/12/17 09:08:24;;;;;;;27.55;11.20;;;;;;;-144.73;100.00;54703.28;4981207;28;20130;-72
2023/12/17 09:10:50;;;;;;;19.25;10.02;;;;;;;-144.73;100.00;54703.28;4987660;28;20109;-71
2023/12/17 09:13:15;;;;;;;19.45;9.27;;;;;;;-144.73;100.00;54740.22;4982000;28;20034;-74
2023/12/17 09:15:41;;;;;;;25.58;10.80;;;;;;;-144.73;100.00;54695.06;4974718;28;20026;-72
2023/12/17 09:18:06;;;;;;;20.77;9.70;;;;;;;-144.73;100.00;54699.16;4975211;28;20050;-71
2023/12/17 09:20:32;;;;;;;18.98;9.88;;;;;;;-144.73;100.00;54715.59;4979904;28;20025;-71
2023/12/17 09:23:00;;;;;;;22.20;10.30;;;;;;;-144.73;100.00;54734.06;4979611;28;20051;-71
2023/12/17 09:25:26;;;;;;;17.85;9.93;;;;;;;-144.73;100.00;54727.91;4982354;28;20069;-71
2023/12/17 09:27:52;;;;;;;27.13;10.98;;;;;;;-144.73;100.00;54736.13;4986458;28;20074;-71
2023/12/17 09:30:20;;;;;;;28.98;10.38;;;;;;;-144.73;100.00;54715.59;4984039;28;20119;-71
2023/12/17 09:32:46;;;;;;;21.42;10.70;;;;;;;-144.73;100.00;54674.53;4981966;28;20173;-71
2023/12/17 09:35:11;;;;;;;20.70;10.65;;;;;;;-144.73;100.00;54713.53;4987645;28;20116;-71
2023/12/17 09:37:40;;;;;;;23.25;10.35;;;;;;;-144.73;100.00;54727.91;4980220;28;20488;-70
2023/12/17 09:40:08;;;;;;;21.67;10.00;;;;;;;-144.73;100.00;54711.47;4973683;28;20062;-70
2023/12/17 09:42:34;;;;;;;24.70;10.75;;;;;;;-144.73;100.00;54732.00;4976728;28;20037;-69
2023/12/17 09:45:00;;;;;;;21.67;10.10;;;;;;;-144.73;100.00;54764.84;4990148;28;20026;-71
2023/12/17 09:47:25;;;;;;;22.63;9.48;;;;;;;-144.73;100.00;54736.13;4975751;28;20026;-72
2023/12/17 09:49:51;;;;;;;26.08;10.65;;;;;;;-144.73;100.00;54756.66;4978816;28;20082;-72
2023/12/17 09:52:18;;;;;;;18.75;10.80;;;;;;;-144.73;100.00;54690.97;4972963;28;20019;-72
2023/12/17 09:54:48;;;;;;;14.93;9.73;;;;;;;-144.73;100.00;54715.59;4978395;28;20049;-70
2023/12/17 09:57:16;;;;;;;20.23;10.43;;;;;;;-144.73;100.00;54723.81;4975982;28;20034;-70
2023/12/17 09:59:42;;;;;;;24.23;11.35;;;;;;;-144.73;100.00;54703.28;4979121;28;20058;-70
2023/12/17 10:02:14;;;;;;;20.05;10.48;;;;;;;-144.73;100.00;54697.13;4978276;28;20077;-69
2023/12/17 10:04:39;;;;;;;;;;;;;;;-144.73;100.00;54736.13;4982214;28;20520;-70
2023/12/17 10:07:06;;;;;;;22.95;11.23;;;;;;;-144.73;100.00;54738.16;4978901;28;19918;-70
2023/12/17 10:09:35;;;;;;;22.45;9.43;;;;;;;-144.73;100.00;54723.81;4979917;28;20030;-70
2023/12/17 10:12:01;;;;;;;21.23;11.18;;;;;;;-144.73;100.00;54695.06;4980980;28;20058;-70
2023/12/17 10:14:30;;;;;;;24.10;11.10;;;;;;;-144.73;100.00;54711.47;4998236;28;20078;-71
2023/12/17 10:16:56;;;;;;;22.40;11.02;;;;;;;-144.73;100.00;54727.91;4978601;28;20034;-70
2023/12/17 10:19:21;;;;;;;22.60;12.02;;;;;;;-144.73;100.00;54793.59;4979102;28;20070;-71
2023/12/17 10:21:47;;;;;;;24.70;13.27;;;;;;;-144.73;100.00;54662.22;4979941;28;20038;-70
2023/12/17 10:24:13;;;;;;;23.65;14.25;;;;;;;-144.73;100.00;54723.81;4977824;28;20038;-71
2023/12/17 10:26:46;;;;;;;32.63;13.05;;;;;;;-144.73;100.00;54719.69;4978044;28;20059;-70
2023/12/17 10:29:16;;;;;;;19.60;13.90;;;;;;;-144.73;100.00;54703.28;4981220;28;20549;-71
2023/12/17 10:31:43;;;;;;;24.08;14.75;;;;;;;-144.73;100.00;54727.91;4986037;28;20022;-70
2023/12/17 10:34:18;;;;;;;23.00;13.93;;;;;;;-144.73;100.00;54711.47;4978595;28;20042;-71
2023/12/17 10:36:51;;;;;;;23.83;14.70;;;;;;;-144.73;100.00;54688.91;4982227;28;20018;-71
2023/12/17 10:39:19;;;;;;;21.88;15.32;;;;;;;-144.73;100.00;54752.53;4977541;28;20038;-72
2023/12/17 10:41:50;;;;;;;25.15;16.95;;;;;;;-144.73;100.00;54695.06;4985609;28;20034;-71
2023/12/17 10:44:19;;;;;;;27.65;19.20;;;;;;;-144.73;100.00;54707.38;4986970;28;20062;-71
2023/12/17 10:46:45;;;;;;;30.10;19.25;;;;;;;-144.73;100.00;54719.69;4980926;28;20103;-71
2023/12/17 10:49:15;;;;;;;29.73;21.02;;;;;;;-144.73;100.00;54736.13;4980294;28;20039;-71
2023/12/17 10:51:51;;;;;;;28.23;22.40;;;;;;;-144.73;100.00;54732.00;4977016;28;20026;-71